sensor_id;sensor_type;location;lat;lon;timestamp;pressure;altitude;pressure_sealevel;temperature;humidity
85649;BME280;76075;52.476;13.124;2024-03-07T00:00:18;102162.91;;;20.27;46.27
85649;BME280;76075;52.476;13.124;2024-03-07T00:01:20;102157.91;;;20.28;46.43
85649;BME280;76075;52.476;13.124;2024-03-07T00:02:23;102157.91;;;20.28;46.43
85649;BME280;76075;52.476;13.124;2024-03-07T00:03:25;102163.66;;;20.28;46.21
85649;BME280;76075;52.476;13.124;2024-03-07T00:04:26;102157.91;;;20.28;46.11
85649;BME280;76075;52.476;13.124;2024-03-07T00:05:27;102157.91;;;20.28;46.26
85649;BME280;76075;52.476;13.124;2024-03-07T00:06:29;102157.91;;;20.28;46.34
85649;BME280;76075;52.476;13.124;2024-03-07T00:07:30;102162.03;;;20.25;46.24
85649;BME280;76075;52.476;13.124;2024-03-07T00:08:31;102162.16;;;20.27;46.39
85649;BME280;76075;52.476;13.124;2024-03-07T00:09:33;102164.28;;;20.26;46.26
85649;BME280;76075;52.476;13.124;2024-03-07T00:10:35;102155.63;;;20.26;46.39
85649;BME280;76075;52.476;13.124;2024-03-07T00:11:37;102161.41;;;20.26;46.28
85649;BME280;76075;52.476;13.124;2024-03-07T00:12:39;102153.41;;;20.25;46.29
85649;BME280;76075;52.476;13.124;2024-03-07T00:13:44;102157.78;;;20.26;46.18
85649;BME280;76075;52.476;13.124;2024-03-07T00:14:45;102161.41;;;20.26;46.42
85649;BME280;76075;52.476;13.124;2024-03-07T00:15:47;102154.16;;;20.25;46.36
85649;BME280;76075;52.476;13.124;2024-03-07T00:16:48;102157.78;;;20.26;46.18
85649;BME280;76075;52.476;13.124;2024-03-07T00:17:50;102157.03;;;20.25;46.26
85649;BME280;76075;52.476;13.124;2024-03-07T00:18:51;102156.28;;;20.25;46.20
85649;BME280;76075;52.476;13.124;2024-03-07T00:19:53;102163.53;;;20.26;46.17
85649;BME280;76075;52.476;13.124;2024-03-07T00:20:54;102160.66;;;20.26;46.16
85649;BME280;76075;52.476;13.124;2024-03-07T00:21:56;102159.16;;;20.25;46.25
85649;BME280;76075;52.476;13.124;2024-03-07T00:22:57;102152.63;;;20.24;46.26
85649;BME280;76075;52.476;13.124;2024-03-07T00:23:59;102159.00;;;20.23;46.24
85649;BME280;76075;52.476;13.124;2024-03-07T00:25:02;102150.38;;;20.23;46.15
85649;BME280;76075;52.476;13.124;2024-03-07T00:26:06;102151.88;;;20.24;46.27
85649;BME280;76075;52.476;13.124;2024-03-07T00:27:07;102157.63;;;20.24;46.23
85649;BME280;76075;52.476;13.124;2024-03-07T00:28:08;102156.88;;;20.23;46.26
85649;BME280;76075;52.476;13.124;2024-03-07T00:29:10;102160.38;;;20.22;46.34
85649;BME280;76075;52.476;13.124;2024-03-07T00:30:11;102148.88;;;20.22;46.30
85649;BME280;76075;52.476;13.124;2024-03-07T00:31:14;102156.13;;;20.23;46.26
85649;BME280;76075;52.476;13.124;2024-03-07T00:32:16;102154.63;;;20.22;46.19
85649;BME280;76075;52.476;13.124;2024-03-07T00:33:19;102154.63;;;20.22;46.25
85649;BME280;76075;52.476;13.124;2024-03-07T00:34:23;102154.63;;;20.22;46.17
85649;BME280;76075;52.476;13.124;2024-03-07T00:35:26;102159.63;;;20.21;46.16
85649;BME280;76075;52.476;13.124;2024-03-07T00:36:28;102151.59;;;20.20;46.27
85649;BME280;76075;52.476;13.124;2024-03-07T00:37:30;102155.25;;;20.20;46.20
85649;BME280;76075;52.476;13.124;2024-03-07T00:38:32;102159.63;;;20.21;46.20
85649;BME280;76075;52.476;13.124;2024-03-07T00:39:33;102159.63;;;20.21;46.36
85649;BME280;76075;52.476;13.124;2024-03-07T00:40:34;102160.22;;;20.20;46.19
85649;BME280;76075;52.476;13.124;2024-03-07T00:41:40;102157.34;;;20.20;46.16
85649;BME280;76075;52.476;13.124;2024-03-07T00:42:42;102150.84;;;20.19;46.18
85649;BME280;76075;52.476;13.124;2024-03-07T00:43:44;102151.59;;;20.20;46.25
85649;BME280;76075;52.476;13.124;2024-03-07T00:44:45;102151.59;;;20.20;46.36
85649;BME280;76075;52.476;13.124;2024-03-07T00:45:47;102157.34;;;20.20;46.38
85649;BME280;76075;52.476;13.124;2024-03-07T00:46:51;102152.97;;;20.19;46.15
85649;BME280;76075;52.476;13.124;2024-03-07T00:47:53;102150.09;;;20.19;46.18
85649;BME280;76075;52.476;13.124;2024-03-07T00:48:54;102153.72;;;20.19;46.13
85649;BME280;76075;52.476;13.124;2024-03-07T00:49:56;102150.09;;;20.19;46.22
85649;BME280;76075;52.476;13.124;2024-03-07T00:50:57;102152.22;;;20.18;46.24
85649;BME280;76075;52.476;13.124;2024-03-07T00:51:59;102153.72;;;20.19;46.19
85649;BME280;76075;52.476;13.124;2024-03-07T00:53:01;102153.72;;;20.19;46.11
85649;BME280;76075;52.476;13.124;2024-03-07T00:54:03;102150.84;;;20.19;46.04
85649;BME280;76075;52.476;13.124;2024-03-07T00:55:05;102155.09;;;20.18;46.13
85649;BME280;76075;52.476;13.124;2024-03-07T00:56:06;102160.09;;;20.18;46.09
85649;BME280;76075;52.476;13.124;2024-03-07T00:57:07;102154.34;;;20.18;46.11
85649;BME280;76075;52.476;13.124;2024-03-07T00:58:09;102155.09;;;20.18;46.16
85649;BME280;76075;52.476;13.124;2024-03-07T00:59:11;102150.09;;;20.19;46.12
85649;BME280;76075;52.476;13.124;2024-03-07T01:00:13;102147.84;;;20.17;46.16
85649;BME280;76075;52.476;13.124;2024-03-07T01:01:16;102152.84;;;20.17;46.14
85649;BME280;76075;52.476;13.124;2024-03-07T01:02:19;102148.59;;;20.18;46.11
85649;BME280;76075;52.476;13.124;2024-03-07T01:03:21;102147.84;;;20.17;46.13
85649;BME280;76075;52.476;13.124;2024-03-07T01:04:22;102147.84;;;20.17;46.11
85649;BME280;76075;52.476;13.124;2024-03-07T01:05:24;102144.22;;;20.17;46.24
85649;BME280;76075;52.476;13.124;2024-03-07T01:06:25;102143.47;;;20.16;46.22
85649;BME280;76075;52.476;13.124;2024-03-07T01:07:26;102145.56;;;20.16;46.18
85649;BME280;76075;52.476;13.124;2024-03-07T01:08:29;102134.69;;;20.14;46.25
85649;BME280;76075;52.476;13.124;2024-03-07T01:09:33;102139.81;;;20.16;46.27
85649;BME280;76075;52.476;13.124;2024-03-07T01:10:36;102133.31;;;20.15;46.05
85649;BME280;76075;52.476;13.124;2024-03-07T01:11:38;102145.56;;;20.16;46.05
85649;BME280;76075;52.476;13.124;2024-03-07T01:12:39;102139.06;;;20.15;45.99
85649;BME280;76075;52.476;13.124;2024-03-07T01:13:41;102142.69;;;20.16;46.02
85649;BME280;76075;52.476;13.124;2024-03-07T01:14:43;102139.81;;;20.16;46.30
85649;BME280;76075;52.476;13.124;2024-03-07T01:15:45;102137.56;;;20.14;46.20
85649;BME280;76075;52.476;13.124;2024-03-07T01:16:46;102141.19;;;20.15;46.15
85649;BME280;76075;52.476;13.124;2024-03-07T01:17:48;102144.06;;;20.15;46.18
85649;BME280;76075;52.476;13.124;2024-03-07T01:18:50;102134.69;;;20.14;46.04
85649;BME280;76075;52.476;13.124;2024-03-07T01:19:51;102138.31;;;20.15;46.06
85649;BME280;76075;52.476;13.124;2024-03-07T01:20:53;102134.69;;;20.14;46.21
85649;BME280;76075;52.476;13.124;2024-03-07T01:21:54;102133.94;;;20.14;46.21
85649;BME280;76075;52.476;13.124;2024-03-07T01:22:55;102136.06;;;20.13;46.19
85649;BME280;76075;52.476;13.124;2024-03-07T01:23:58;102141.19;;;20.15;46.03
85649;BME280;76075;52.476;13.124;2024-03-07T01:25:00;102129.69;;;20.15;46.09
85649;BME280;76075;52.476;13.124;2024-03-07T01:26:01;102131.81;;;20.14;46.06
85649;BME280;76075;52.476;13.124;2024-03-07T01:27:03;102126.81;;;20.15;46.04
85649;BME280;76075;52.476;13.124;2024-03-07T01:28:04;102131.06;;;20.14;46.18
85649;BME280;76075;52.476;13.124;2024-03-07T01:29:07;102133.94;;;20.14;46.06
85649;BME280;76075;52.476;13.124;2024-03-07T01:30:09;102131.81;;;20.14;45.97
85649;BME280;76075;52.476;13.124;2024-03-07T01:31:10;102135.31;;;20.13;46.01
85649;BME280;76075;52.476;13.124;2024-03-07T01:32:11;102139.56;;;20.12;46.10
85649;BME280;76075;52.476;13.124;2024-03-07T01:33:13;102128.06;;;20.12;46.05
85649;BME280;76075;52.476;13.124;2024-03-07T01:34:14;102129.56;;;20.13;46.03
85649;BME280;76075;52.476;13.124;2024-03-07T01:35:16;102134.56;;;20.12;46.01
85649;BME280;76075;52.476;13.124;2024-03-07T01:36:18;102133.81;;;20.12;46.27
85649;BME280;76075;52.476;13.124;2024-03-07T01:37:20;102137.28;;;20.10;46.09
85649;BME280;76075;52.476;13.124;2024-03-07T01:38:21;102129.41;;;20.11;46.10
85649;BME280;76075;52.476;13.124;2024-03-07T01:39:23;102132.28;;;20.11;46.00
85649;BME280;76075;52.476;13.124;2024-03-07T01:40:24;102121.53;;;20.11;46.14
85649;BME280;76075;52.476;13.124;2024-03-07T01:41:25;102126.53;;;20.11;46.02
85649;BME280;76075;52.476;13.124;2024-03-07T01:42:27;102135.16;;;20.11;46.05
85649;BME280;76075;52.476;13.124;2024-03-07T01:43:28;102133.66;;;20.09;46.24
85649;BME280;76075;52.476;13.124;2024-03-07T01:44:32;102131.53;;;20.10;45.99
85649;BME280;76075;52.476;13.124;2024-03-07T01:45:33;102132.16;;;20.08;46.05
85649;BME280;76075;52.476;13.124;2024-03-07T01:46:38;102132.16;;;20.08;45.99
85649;BME280;76075;52.476;13.124;2024-03-07T01:47:39;102125.66;;;20.08;45.96
85649;BME280;76075;52.476;13.124;2024-03-07T01:48:41;102126.25;;;20.06;46.06
85649;BME280;76075;52.476;13.124;2024-03-07T01:49:43;102134.28;;;20.08;45.92
85649;BME280;76075;52.476;13.124;2024-03-07T01:50:44;102132.16;;;20.08;45.98
85649;BME280;76075;52.476;13.124;2024-03-07T01:51:46;102125.66;;;20.08;46.03
85649;BME280;76075;52.476;13.124;2024-03-07T01:52:49;102126.41;;;20.08;46.17
85649;BME280;76075;52.476;13.124;2024-03-07T01:53:52;102135.03;;;20.08;45.90
85649;BME280;76075;52.476;13.124;2024-03-07T01:54:54;102135.03;;;20.08;46.06
85649;BME280;76075;52.476;13.124;2024-03-07T01:55:59;102132.16;;;20.08;46.12
85649;BME280;76075;52.476;13.124;2024-03-07T01:57:01;102132.16;;;20.08;45.94
85649;BME280;76075;52.476;13.124;2024-03-07T01:58:02;102134.28;;;20.08;45.99
85649;BME280;76075;52.476;13.124;2024-03-07T01:59:05;102135.03;;;20.08;46.07
85649;BME280;76075;52.476;13.124;2024-03-07T02:00:08;102130.03;;;20.09;46.00
85649;BME280;76075;52.476;13.124;2024-03-07T02:01:10;102137.16;;;20.08;45.90
85649;BME280;76075;52.476;13.124;2024-03-07T02:02:12;102140.03;;;20.08;45.89
85649;BME280;76075;52.476;13.124;2024-03-07T02:03:13;102136.41;;;20.07;45.92
85649;BME280;76075;52.476;13.124;2024-03-07T02:04:15;102127.78;;;20.07;45.94
85649;BME280;76075;52.476;13.124;2024-03-07T02:05:16;102137.75;;;20.06;46.08
85649;BME280;76075;52.476;13.124;2024-03-07T02:06:18;102125.50;;;20.06;46.10
85649;BME280;76075;52.476;13.124;2024-03-07T02:07:19;102132.00;;;20.06;46.00
85649;BME280;76075;52.476;13.124;2024-03-07T02:08:20;102126.25;;;20.06;45.87
85649;BME280;76075;52.476;13.124;2024-03-07T02:09:22;102131.25;;;20.06;45.94
85649;BME280;76075;52.476;13.124;2024-03-07T02:10:23;102129.03;;;20.04;45.95
85649;BME280;76075;52.476;13.124;2024-03-07T02:11:24;102124.75;;;20.05;45.94
85649;BME280;76075;52.476;13.124;2024-03-07T02:12:26;102129.03;;;20.04;45.91
85649;BME280;76075;52.476;13.124;2024-03-07T02:13:27;102127.50;;;20.03;45.93
85649;BME280;76075;52.476;13.124;2024-03-07T02:14:29;102129.03;;;20.04;45.99
85649;BME280;76075;52.476;13.124;2024-03-07T02:15:31;102129.03;;;20.04;45.88
85649;BME280;76075;52.476;13.124;2024-03-07T02:16:32;102131.91;;;20.04;45.95
85649;BME280;76075;52.476;13.124;2024-03-07T02:17:33;102117.50;;;20.04;45.91
85649;BME280;76075;52.476;13.124;2024-03-07T02:18:36;102126.88;;;20.05;45.91
85649;BME280;76075;52.476;13.124;2024-03-07T02:19:38;102126.75;;;20.03;45.93
85649;BME280;76075;52.476;13.124;2024-03-07T02:20:46;102120.25;;;20.02;45.88
85649;BME280;76075;52.476;13.124;2024-03-07T02:21:47;102124.47;;;20.01;45.98
85649;BME280;76075;52.476;13.124;2024-03-07T02:22:49;102126.00;;;20.02;45.97
85649;BME280;76075;52.476;13.124;2024-03-07T02:23:51;102121.75;;;20.03;46.02
85649;BME280;76075;52.476;13.124;2024-03-07T02:24:54;102118.72;;;20.01;46.09
85649;BME280;76075;52.476;13.124;2024-03-07T02:25:55;102114.50;;;20.02;46.01
85649;BME280;76075;52.476;13.124;2024-03-07T02:26:57;102111.63;;;20.02;45.93
85649;BME280;76075;52.476;13.124;2024-03-07T02:28:00;102119.47;;;20.02;45.86
85649;BME280;76075;52.476;13.124;2024-03-07T02:29:01;102118.72;;;20.01;45.82
85649;BME280;76075;52.476;13.124;2024-03-07T02:30:03;102118.72;;;20.01;45.88
85649;BME280;76075;52.476;13.124;2024-03-07T02:31:09;102111.50;;;20.00;45.84
85649;BME280;76075;52.476;13.124;2024-03-07T02:32:10;102120.84;;;20.01;45.87
85649;BME280;76075;52.476;13.124;2024-03-07T02:33:13;102118.72;;;20.01;45.82
85649;BME280;76075;52.476;13.124;2024-03-07T02:34:14;102114.34;;;20.00;45.84
85649;BME280;76075;52.476;13.124;2024-03-07T02:35:15;102120.13;;;20.00;45.99
85649;BME280;76075;52.476;13.124;2024-03-07T02:36:17;102116.50;;;20.00;45.92
85649;BME280;76075;52.476;13.124;2024-03-07T02:37:18;102117.25;;;20.00;46.01
85649;BME280;76075;52.476;13.124;2024-03-07T02:38:20;102117.97;;;20.01;45.83
85649;BME280;76075;52.476;13.124;2024-03-07T02:39:21;102120.13;;;20.00;45.95
85649;BME280;76075;52.476;13.124;2024-03-07T02:40:23;102123.00;;;20.00;45.91
85649;BME280;76075;52.476;13.124;2024-03-07T02:41:24;102123.00;;;20.00;45.84
85649;BME280;76075;52.476;13.124;2024-03-07T02:42:25;102114.97;;;19.99;45.77
85649;BME280;76075;52.476;13.124;2024-03-07T02:43:27;102120.72;;;19.99;45.87
85649;BME280;76075;52.476;13.124;2024-03-07T02:44:28;102117.84;;;19.99;45.77
85649;BME280;76075;52.476;13.124;2024-03-07T02:45:30;102124.19;;;19.97;45.97
85649;BME280;76075;52.476;13.124;2024-03-07T02:46:31;102114.81;;;19.97;45.82
85649;BME280;76075;52.476;13.124;2024-03-07T02:47:33;102118.44;;;19.97;45.93
85649;BME280;76075;52.476;13.124;2024-03-07T02:48:35;102115.47;;;19.95;45.97
85649;BME280;76075;52.476;13.124;2024-03-07T02:49:36;102121.22;;;19.95;45.90
85649;BME280;76075;52.476;13.124;2024-03-07T02:50:38;102116.97;;;19.96;45.98
85649;BME280;76075;52.476;13.124;2024-03-07T02:51:39;102116.97;;;19.96;45.93
85649;BME280;76075;52.476;13.124;2024-03-07T02:52:43;102115.47;;;19.95;46.02
85649;BME280;76075;52.476;13.124;2024-03-07T02:53:44;102112.69;;;19.97;45.82
85649;BME280;76075;52.476;13.124;2024-03-07T02:54:45;102119.97;;;19.98;45.98
85649;BME280;76075;52.476;13.124;2024-03-07T02:55:47;102118.34;;;19.95;45.90
85649;BME280;76075;52.476;13.124;2024-03-07T02:56:48;102119.69;;;19.94;45.99
85649;BME280;76075;52.476;13.124;2024-03-07T02:57:49;102123.16;;;19.93;45.91
85649;BME280;76075;52.476;13.124;2024-03-07T02:58:51;102112.44;;;19.93;45.97
85649;BME280;76075;52.476;13.124;2024-03-07T02:59:53;102117.41;;;19.93;45.81
85649;BME280;76075;52.476;13.124;2024-03-07T03:00:57;102116.06;;;19.94;45.88
85649;BME280;76075;52.476;13.124;2024-03-07T03:01:58;102124.09;;;19.95;45.95
85649;BME280;76075;52.476;13.124;2024-03-07T03:02:59;102116.81;;;19.94;45.93
85649;BME280;76075;52.476;13.124;2024-03-07T03:04:01;102121.22;;;19.95;45.81
85649;BME280;76075;52.476;13.124;2024-03-07T03:05:04;102118.19;;;19.93;45.84
85649;BME280;76075;52.476;13.124;2024-03-07T03:06:07;102121.06;;;19.93;45.75
85649;BME280;76075;52.476;13.124;2024-03-07T03:07:09;102124.09;;;19.95;45.88
85649;BME280;76075;52.476;13.124;2024-03-07T03:08:11;102121.06;;;19.93;45.79
85649;BME280;76075;52.476;13.124;2024-03-07T03:09:15;102123.94;;;19.93;45.76
85649;BME280;76075;52.476;13.124;2024-03-07T03:10:20;102122.56;;;19.94;45.77
85649;BME280;76075;52.476;13.124;2024-03-07T03:11:21;102123.94;;;19.93;45.92
85649;BME280;76075;52.476;13.124;2024-03-07T03:12:23;102125.44;;;19.94;45.71
85649;BME280;76075;52.476;13.124;2024-03-07T03:13:24;102116.69;;;19.92;45.76
85649;BME280;76075;52.476;13.124;2024-03-07T03:14:28;102135.44;;;19.93;45.77
85649;BME280;76075;52.476;13.124;2024-03-07T03:15:30;102122.41;;;19.92;45.78
85649;BME280;76075;52.476;13.124;2024-03-07T03:16:32;102119.56;;;19.92;45.73
85649;BME280;76075;52.476;13.124;2024-03-07T03:17:48;102122.41;;;19.92;45.78
85649;BME280;76075;52.476;13.124;2024-03-07T03:18:49;102119.56;;;19.92;45.92
85649;BME280;76075;52.476;13.124;2024-03-07T03:19:51;102114.53;;;19.93;45.91
85649;BME280;76075;52.476;13.124;2024-03-07T03:20:53;102126.69;;;19.91;45.71
85649;BME280;76075;52.476;13.124;2024-03-07T03:21:54;102125.16;;;19.90;45.75
85649;BME280;76075;52.476;13.124;2024-03-07T03:22:57;102126.69;;;19.91;45.68
85649;BME280;76075;52.476;13.124;2024-03-07T03:24:18;102125.16;;;19.90;45.76
85649;BME280;76075;52.476;13.124;2024-03-07T03:25:22;102130.91;;;19.90;45.68
85649;BME280;76075;52.476;13.124;2024-03-07T03:26:24;102120.94;;;19.91;45.79
85649;BME280;76075;52.476;13.124;2024-03-07T03:27:25;102117.91;;;19.89;45.71
85649;BME280;76075;52.476;13.124;2024-03-07T03:28:27;102120.19;;;19.91;45.87
85649;BME280;76075;52.476;13.124;2024-03-07T03:29:28;102126.53;;;19.89;45.68
85649;BME280;76075;52.476;13.124;2024-03-07T03:30:30;102116.38;;;19.88;45.79
85649;BME280;76075;52.476;13.124;2024-03-07T03:31:31;102123.66;;;19.89;45.76
85649;BME280;76075;52.476;13.124;2024-03-07T03:32:32;102123.66;;;19.89;45.69
85649;BME280;76075;52.476;13.124;2024-03-07T03:33:34;102122.13;;;19.88;45.70
85649;BME280;76075;52.476;13.124;2024-03-07T03:34:36;102122.13;;;19.88;45.71
85649;BME280;76075;52.476;13.124;2024-03-07T03:35:38;102122.13;;;19.88;45.80
85649;BME280;76075;52.476;13.124;2024-03-07T03:36:39;102127.16;;;19.87;45.66
85649;BME280;76075;52.476;13.124;2024-03-07T03:37:44;102129.28;;;19.87;45.71
85649;BME280;76075;52.476;13.124;2024-03-07T03:38:45;102122.13;;;19.88;45.75
85649;BME280;76075;52.476;13.124;2024-03-07T03:39:47;102124.25;;;19.87;45.67
85649;BME280;76075;52.476;13.124;2024-03-07T03:40:48;102126.41;;;19.87;45.79
85649;BME280;76075;52.476;13.124;2024-03-07T03:41:49;102124.91;;;19.86;45.65
85649;BME280;76075;52.476;13.124;2024-03-07T03:42:51;102126.41;;;19.87;45.72
85649;BME280;76075;52.476;13.124;2024-03-07T03:43:53;102127.16;;;19.87;45.75
85649;BME280;76075;52.476;13.124;2024-03-07T03:44:54;102127.16;;;19.87;45.64
85649;BME280;76075;52.476;13.124;2024-03-07T03:45:55;102132.16;;;19.87;45.63
85649;BME280;76075;52.476;13.124;2024-03-07T03:46:57;102126.41;;;19.87;45.66
85649;BME280;76075;52.476;13.124;2024-03-07T03:47:58;102133.63;;;19.88;45.69
85649;BME280;76075;52.476;13.124;2024-03-07T03:49:00;102130.66;;;19.86;45.70
85649;BME280;76075;52.476;13.124;2024-03-07T03:50:05;102125.66;;;19.86;45.79
85649;BME280;76075;52.476;13.124;2024-03-07T03:51:07;102128.66;;;19.88;45.61
85649;BME280;76075;52.476;13.124;2024-03-07T03:52:08;102128.66;;;19.88;45.60
85649;BME280;76075;52.476;13.124;2024-03-07T03:53:10;102132.28;;;19.89;45.61
85649;BME280;76075;52.476;13.124;2024-03-07T03:54:11;102129.56;;;19.91;45.47
85649;BME280;76075;52.476;13.124;2024-03-07T03:55:13;102139.69;;;19.92;45.63
85649;BME280;76075;52.476;13.124;2024-03-07T03:56:14;102131.19;;;19.94;45.53
85649;BME280;76075;52.476;13.124;2024-03-07T03:57:17;102141.44;;;19.97;45.54
85649;BME280;76075;52.476;13.124;2024-03-07T03:58:19;102129.19;;;19.97;45.51
85649;BME280;76075;52.476;13.124;2024-03-07T03:59:20;102131.47;;;19.98;45.45
85649;BME280;76075;52.476;13.124;2024-03-07T04:00:22;102132.97;;;19.99;45.71
85649;BME280;76075;52.476;13.124;2024-03-07T04:01:24;102134.50;;;20.00;45.73
85649;BME280;76075;52.476;13.124;2024-03-07T04:02:26;102139.00;;;20.03;45.62
85649;BME280;76075;52.476;13.124;2024-03-07T04:03:27;102133.25;;;20.03;45.59
85649;BME280;76075;52.476;13.124;2024-03-07T04:04:29;102134.78;;;20.04;45.78
85649;BME280;76075;52.476;13.124;2024-03-07T04:05:30;102136.25;;;20.05;45.96
85649;BME280;76075;52.476;13.124;2024-03-07T04:06:31;102143.50;;;20.06;46.04
85649;BME280;76075;52.476;13.124;2024-03-07T04:07:33;102140.63;;;20.06;45.79
85649;BME280;76075;52.476;13.124;2024-03-07T04:08:34;102134.88;;;20.06;45.83
85649;BME280;76075;52.476;13.124;2024-03-07T04:09:38;102137.75;;;20.06;45.75
85649;BME280;76075;52.476;13.124;2024-03-07T04:10:39;102132.00;;;20.06;45.88
85649;BME280;76075;52.476;13.124;2024-03-07T04:11:40;102137.75;;;20.06;45.98
85649;BME280;76075;52.476;13.124;2024-03-07T04:12:42;102138.53;;;20.07;45.89
85649;BME280;76075;52.476;13.124;2024-03-07T04:13:45;102138.53;;;20.07;45.88
85649;BME280;76075;52.476;13.124;2024-03-07T04:14:46;102137.75;;;20.06;45.96
85649;BME280;76075;52.476;13.124;2024-03-07T04:15:48;102140.63;;;20.06;45.91
85649;BME280;76075;52.476;13.124;2024-03-07T04:16:49;102136.25;;;20.05;45.75
85649;BME280;76075;52.476;13.124;2024-03-07T04:17:51;102142.75;;;20.06;45.84
85649;BME280;76075;52.476;13.124;2024-03-07T04:18:52;102137.00;;;20.06;45.90
85649;BME280;76075;52.476;13.124;2024-03-07T04:19:53;102140.03;;;20.08;45.87
85649;BME280;76075;52.476;13.124;2024-03-07T04:20:55;102142.16;;;20.07;45.95
85649;BME280;76075;52.476;13.124;2024-03-07T04:21:56;102145.78;;;20.08;45.98
85649;BME280;76075;52.476;13.124;2024-03-07T04:22:58;102139.28;;;20.07;45.96
85649;BME280;76075;52.476;13.124;2024-03-07T04:23:59;102144.44;;;20.09;46.07
85649;BME280;76075;52.476;13.124;2024-03-07T04:25:01;102137.91;;;20.08;46.04
85649;BME280;76075;52.476;13.124;2024-03-07T04:26:03;102143.78;;;20.11;46.06
85649;BME280;76075;52.476;13.124;2024-03-07T04:27:04;102138.03;;;20.11;46.08
85649;BME280;76075;52.476;13.124;2024-03-07T04:28:06;102136.53;;;20.09;46.08
85649;BME280;76075;52.476;13.124;2024-03-07T04:29:07;102138.19;;;20.13;46.03
85649;BME280;76075;52.476;13.124;2024-03-07T04:30:09;102142.59;;;20.14;46.17
85649;BME280;76075;52.476;13.124;2024-03-07T04:31:11;102141.06;;;20.13;46.38
85649;BME280;76075;52.476;13.124;2024-03-07T04:32:12;102138.31;;;20.15;46.28
85649;BME280;76075;52.476;13.124;2024-03-07T04:33:14;102144.81;;;20.15;46.19
85649;BME280;76075;52.476;13.124;2024-03-07T04:34:15;102141.94;;;20.15;46.04
85649;BME280;76075;52.476;13.124;2024-03-07T04:35:17;102140.59;;;20.16;46.30
85649;BME280;76075;52.476;13.124;2024-03-07T04:36:20;102137.72;;;20.16;46.19
85649;BME280;76075;52.476;13.124;2024-03-07T04:37:22;102139.81;;;20.16;46.20
85649;BME280;76075;52.476;13.124;2024-03-07T04:38:23;102145.56;;;20.16;46.26
85649;BME280;76075;52.476;13.124;2024-03-07T04:39:25;102144.81;;;20.15;46.21
85649;BME280;76075;52.476;13.124;2024-03-07T04:40:33;102141.94;;;20.15;46.10
85649;BME280;76075;52.476;13.124;2024-03-07T04:41:35;102134.06;;;20.16;46.20
85649;BME280;76075;52.476;13.124;2024-03-07T04:42:37;102138.31;;;20.15;46.43
85649;BME280;76075;52.476;13.124;2024-03-07T04:43:38;102134.06;;;20.16;46.35
85649;BME280;76075;52.476;13.124;2024-03-07T04:44:40;102138.31;;;20.15;46.32
85649;BME280;76075;52.476;13.124;2024-03-07T04:45:41;102139.69;;;20.14;46.21
85649;BME280;76075;52.476;13.124;2024-03-07T04:46:42;102129.56;;;20.13;46.16
85649;BME280;76075;52.476;13.124;2024-03-07T04:47:45;102143.31;;;20.14;46.23
85649;BME280;76075;52.476;13.124;2024-03-07T04:48:47;102138.19;;;20.13;46.30
85649;BME280;76075;52.476;13.124;2024-03-07T04:49:49;102143.31;;;20.14;46.40
85649;BME280;76075;52.476;13.124;2024-03-07T04:50:51;102142.59;;;20.14;46.17
85649;BME280;76075;52.476;13.124;2024-03-07T04:51:53;102139.06;;;20.15;46.34
85649;BME280;76075;52.476;13.124;2024-03-07T04:52:54;102141.34;;;20.17;46.13
85649;BME280;76075;52.476;13.124;2024-03-07T04:53:56;102138.47;;;20.17;46.22
85649;BME280;76075;52.476;13.124;2024-03-07T04:54:57;102139.81;;;20.16;46.35
85649;BME280;76075;52.476;13.124;2024-03-07T04:55:59;102148.59;;;20.18;46.34
85649;BME280;76075;52.476;13.124;2024-03-07T04:57:00;102142.84;;;20.18;46.31
85649;BME280;76075;52.476;13.124;2024-03-07T04:58:01;102147.97;;;20.19;46.36
85649;BME280;76075;52.476;13.124;2024-03-07T04:59:03;102145.84;;;20.20;46.11
85649;BME280;76075;52.476;13.124;2024-03-07T05:00:05;102153.13;;;20.21;46.39
85649;BME280;76075;52.476;13.124;2024-03-07T05:01:07;102150.25;;;20.21;46.46
85649;BME280;76075;52.476;13.124;2024-03-07T05:02:08;102150.84;;;20.19;46.28
85649;BME280;76075;52.476;13.124;2024-03-07T05:03:09;102147.38;;;20.21;46.22
85649;BME280;76075;52.476;13.124;2024-03-07T05:04:12;102150.25;;;20.21;46.31
85649;BME280;76075;52.476;13.124;2024-03-07T05:05:14;102151.59;;;20.20;46.48
85649;BME280;76075;52.476;13.124;2024-03-07T05:06:16;102147.38;;;20.21;46.37
85649;BME280;76075;52.476;13.124;2024-03-07T05:07:17;102153.88;;;20.21;46.34
85649;BME280;76075;52.476;13.124;2024-03-07T05:08:20;102149.59;;;20.22;46.31
85649;BME280;76075;52.476;13.124;2024-03-07T05:09:21;102156.75;;;20.21;46.52
85649;BME280;76075;52.476;13.124;2024-03-07T05:10:24;102150.38;;;20.23;46.26
85649;BME280;76075;52.476;13.124;2024-03-07T05:11:26;102155.38;;;20.22;46.31
85649;BME280;76075;52.476;13.124;2024-03-07T05:12:27;102151.75;;;20.22;46.31
85649;BME280;76075;52.476;13.124;2024-03-07T05:13:29;102156.75;;;20.21;46.32
85649;BME280;76075;52.476;13.124;2024-03-07T05:14:30;102154.63;;;20.22;46.47
85649;BME280;76075;52.476;13.124;2024-03-07T05:15:31;102157.50;;;20.22;46.25
85649;BME280;76075;52.476;13.124;2024-03-07T05:16:33;102161.13;;;20.22;46.44
85649;BME280;76075;52.476;13.124;2024-03-07T05:17:34;102160.38;;;20.22;46.44
85649;BME280;76075;52.476;13.124;2024-03-07T05:18:37;102153.13;;;20.21;46.37
85649;BME280;76075;52.476;13.124;2024-03-07T05:19:38;102164.63;;;20.21;46.41